METAR ET TAF INFORMATION
METAR FOR KFHB
ADDS - METARS form results

(1407 UTC 28 May 2020)
Data provider http://aviationweather.gov/metar/data/
 
METAR text: KFHB 281355Z AUTO 23006KT 10SM SCT011 27/26 A3007 RMK AO2 LTG DSNT E T02720259
Conditions at: KFHB (FERNANDINA BEACH, FL, US) observed 1355 UTC 28 May 2020
Temperature: 27.2°C (81°F)
Dewpoint: 25.9°C (79°F) [RH = 93%]
Pressure (altimeter): 30.07 inches Hg (1018.4 mb)
Winds: from the SW (230 degrees) at 7 MPH (6 knots; 3.1 m/s)
Visibility: 10 or more miles (16+ km)
Ceiling: at least 12,000 feet AGL
Clouds: scattered clouds at 1100 feet AGL
Weather: automated observation with no human augmentation;
there may or may not be significant weather present at this time

METAR text: KFHB 281335Z AUTO 23005KT 10SM SCT011 27/26 A3007 RMK AO2 T02670257
Conditions at: KFHB (FERNANDINA BEACH, FL, US) observed 1335 UTC 28 May 2020
Temperature: 26.7°C (80°F)
Dewpoint: 25.7°C (78°F) [RH = 94%]
Pressure (altimeter): 30.07 inches Hg (1018.4 mb)
Winds: from the SW (230 degrees) at 6 MPH (5 knots; 2.6 m/s)
Visibility: 10 or more miles (16+ km)
Ceiling: at least 12,000 feet AGL
Clouds: scattered clouds at 1100 feet AGL
Weather: automated observation with no human augmentation;
there may or may not be significant weather present at this time

METAR text: KFHB 281315Z AUTO 18004KT 10SM CLR 26/25 A3007 RMK AO2 T02590253
Conditions at: KFHB (FERNANDINA BEACH, FL, US) observed 1315 UTC 28 May 2020
Temperature: 25.9°C (79°F)
Dewpoint: 25.3°C (78°F) [RH = 97%]
Pressure (altimeter): 30.07 inches Hg (1018.4 mb)
Winds: from the S (180 degrees) at 5 MPH (4 knots; 2.1 m/s)
Visibility: 10 or more miles (16+ km)
Ceiling: at least 12,000 feet AGL
Clouds: sky clear below 12,000 feet AGL
Weather: automated observation with no human augmentation;
there may or may not be significant weather present at this time

 AÉROPORT DE AÉROPORT

 INFORMATIONS DE PISTE

 AÉROPORT FRÉQUENCES

 SIDA DE NAVIGATION



Powered by Virtual Airlines Manager [v2.6.2]